createdAt,value
2018-06-16T00:01:34.443Z,18.63
2018-06-16T00:04:03.462Z,18.61
2018-06-16T00:06:32.466Z,18.57
2018-06-16T00:09:01.490Z,18.56
2018-06-16T00:11:30.692Z,18.57
2018-06-16T00:13:59.684Z,18.56
2018-06-16T00:16:28.642Z,18.55
2018-06-16T00:18:57.674Z,18.52
2018-06-16T00:21:26.653Z,18.53
2018-06-16T00:23:55.648Z,18.51
2018-06-16T00:26:24.744Z,18.47
2018-06-16T00:28:53.975Z,18.48
2018-06-16T00:31:22.958Z,18.44
2018-06-16T00:33:51.952Z,18.46
2018-06-16T00:36:20.895Z,18.41
2018-06-16T00:38:49.922Z,18.38
2018-06-16T00:41:19.091Z,18.42
2018-06-16T00:43:48.023Z,18.41
2018-06-16T00:46:17.047Z,18.33
2018-06-16T00:48:45.993Z,18.36
2018-06-16T00:51:15.008Z,18.35
2018-06-16T00:53:43.968Z,18.32
2018-06-16T00:56:12.989Z,18.29
2018-06-16T00:58:42.060Z,18.30
2018-06-16T01:01:11.130Z,18.30
2018-06-16T01:03:40.290Z,18.27
2018-06-16T01:06:09.470Z,18.24
2018-06-16T01:08:38.408Z,18.25
2018-06-16T01:11:07.395Z,18.20
2018-06-16T01:13:36.323Z,18.17
2018-06-16T01:16:05.323Z,18.15
2018-06-16T01:18:34.325Z,18.14
2018-06-16T01:21:03.324Z,18.10
2018-06-16T01:23:32.292Z,18.08
2018-06-16T01:26:01.270Z,18.04
2018-06-16T01:28:30.267Z,18.03
2018-06-16T01:30:59.328Z,18.03
2018-06-16T01:33:28.335Z,18.02
2018-06-16T01:35:57.365Z,17.98
2018-06-16T01:38:26.373Z,17.97
2018-06-16T01:40:55.458Z,17.97
2018-06-16T01:43:24.497Z,17.93
2018-06-16T01:45:53.474Z,17.95
2018-06-16T01:48:22.535Z,17.90
2018-06-16T01:50:51.581Z,17.84
2018-06-16T01:53:20.573Z,17.84
2018-06-16T01:55:49.530Z,17.83
2018-06-16T01:58:18.571Z,17.79
2018-06-16T02:00:47.603Z,17.73
2018-06-16T02:03:16.593Z,17.68
2018-06-16T02:05:45.595Z,17.68
2018-06-16T02:08:14.584Z,17.65
2018-06-16T02:10:43.641Z,17.63
2018-06-16T02:13:12.701Z,17.64
2018-06-16T02:15:41.645Z,17.60
2018-06-16T02:18:10.690Z,17.57
2018-06-16T02:20:39.801Z,17.56
2018-06-16T02:23:08.830Z,17.57
2018-06-16T02:25:37.826Z,17.58
2018-06-16T02:28:06.887Z,17.55
2018-06-16T02:30:36.056Z,17.55
2018-06-16T02:33:05.096Z,17.56
2018-06-16T02:35:34.247Z,17.58
2018-06-16T02:38:03.226Z,17.58
2018-06-16T02:40:32.444Z,17.55
2018-06-16T02:43:01.440Z,17.55
2018-06-16T02:45:30.410Z,17.54
2018-06-16T02:47:59.430Z,17.49
2018-06-16T02:50:28.467Z,17.50
2018-06-16T02:52:57.473Z,17.47
2018-06-16T02:55:26.500Z,17.46
2018-06-16T02:57:55.484Z,17.43
2018-06-16T03:00:24.468Z,17.39
2018-06-16T03:02:53.480Z,17.42
2018-06-16T03:05:22.462Z,17.38
2018-06-16T03:07:51.638Z,17.39
2018-06-16T03:10:20.601Z,17.40
2018-06-16T03:12:49.601Z,17.43
2018-06-16T03:15:18.653Z,17.43
2018-06-16T03:17:47.769Z,17.42
2018-06-16T03:20:16.783Z,17.41
2018-06-16T03:22:45.834Z,17.44
2018-06-16T03:25:15.957Z,17.46
2018-06-16T03:27:44.989Z,17.47
2018-06-16T03:30:15.639Z,17.48
2018-06-16T03:32:45.344Z,17.52
2018-06-16T03:35:14.345Z,17.58
2018-06-16T03:37:43.359Z,17.60
2018-06-16T03:40:12.318Z,17.59
2018-06-16T03:42:41.315Z,17.63
2018-06-16T03:45:10.362Z,17.62
2018-06-16T03:47:39.430Z,17.63
2018-06-16T03:50:08.372Z,17.59
2018-06-16T03:52:37.345Z,17.60
2018-06-16T03:55:06.654Z,17.64
2018-06-16T03:57:35.812Z,17.67
2018-06-16T04:00:05.235Z,17.70
2018-06-16T04:02:34.294Z,17.72
2018-06-16T04:05:03.307Z,17.74
2018-06-16T04:07:32.501Z,17.74
2018-06-16T04:10:01.505Z,17.77
2018-06-16T04:12:30.499Z,17.76
2018-06-16T04:14:59.457Z,17.78
2018-06-16T04:17:28.537Z,17.80
2018-06-16T04:19:57.539Z,17.86
2018-06-16T04:22:26.508Z,17.88
2018-06-16T04:24:55.469Z,17.91
2018-06-16T04:27:24.524Z,17.94
2018-06-16T04:29:53.524Z,17.91
2018-06-16T04:32:22.539Z,17.91
2018-06-16T04:34:51.657Z,17.97
2018-06-16T04:37:20.619Z,17.99
2018-06-16T04:39:49.579Z,17.98
2018-06-16T04:42:18.537Z,18.01
2018-06-16T04:44:47.497Z,18.01
2018-06-16T04:47:16.463Z,18.12
2018-06-16T04:49:45.420Z,18.11
2018-06-16T04:52:14.416Z,18.07
2018-06-16T04:54:43.372Z,18.09
2018-06-16T04:57:12.351Z,18.04
2018-06-16T04:59:41.330Z,18.08
2018-06-16T05:02:10.293Z,18.07
2018-06-16T05:04:39.274Z,18.16
2018-06-16T05:07:08.432Z,18.06
2018-06-16T05:09:37.418Z,18.12
2018-06-16T05:12:06.425Z,18.19
2018-06-16T05:14:35.402Z,18.27
2018-06-16T05:17:04.426Z,18.29
2018-06-16T05:19:33.413Z,18.33
2018-06-16T05:22:02.384Z,18.38
2018-06-16T05:24:31.354Z,18.32
2018-06-16T05:27:00.354Z,18.31
2018-06-16T05:29:29.375Z,18.41
2018-06-16T05:31:58.393Z,18.49
2018-06-16T05:34:27.455Z,18.41
2018-06-16T05:36:56.468Z,18.40
2018-06-16T05:39:25.640Z,18.37
2018-06-16T05:41:54.657Z,18.40
2018-06-16T05:44:23.608Z,18.57
2018-06-16T05:46:52.655Z,18.65
2018-06-16T05:49:21.653Z,18.69
2018-06-16T05:51:50.870Z,18.69
2018-06-16T05:54:19.866Z,18.73
2018-06-16T05:56:48.935Z,18.74
2018-06-16T05:59:17.968Z,18.84
2018-06-16T06:01:46.987Z,18.91
2018-06-16T06:04:16.013Z,19.01
2018-06-16T06:06:45.008Z,18.95
2018-06-16T06:09:14.051Z,19.01
2018-06-16T06:11:43.035Z,19.01
2018-06-16T06:14:12.032Z,19.11
2018-06-16T06:16:41.044Z,19.19
2018-06-16T06:19:10.045Z,19.28
2018-06-16T06:21:39.059Z,19.41
2018-06-16T06:24:08.061Z,19.54
2018-06-16T06:26:37.050Z,19.57
2018-06-16T06:29:06.105Z,19.53
2018-06-16T06:31:35.101Z,19.71
2018-06-16T06:34:04.084Z,19.82
2018-06-16T06:36:33.046Z,19.82
2018-06-16T06:39:02.062Z,19.80
2018-06-16T06:41:31.095Z,19.97
2018-06-16T06:44:00.110Z,20.20
2018-06-16T06:46:29.102Z,20.34
2018-06-16T06:48:58.672Z,20.37
2018-06-16T06:51:27.963Z,20.56
2018-06-16T06:53:57.012Z,20.59
2018-06-16T06:56:26.055Z,20.61
2018-06-16T06:58:55.723Z,20.65
2018-06-16T07:01:24.739Z,20.68
2018-06-16T07:03:53.697Z,20.79
2018-06-16T07:06:22.680Z,21.13
2018-06-16T07:08:51.686Z,21.26
2018-06-16T07:11:20.875Z,21.42
2018-06-16T07:13:49.886Z,21.28
2018-06-16T07:16:18.940Z,21.53
2018-06-16T07:18:47.977Z,21.64
2018-06-16T07:21:17.031Z,21.52
2018-06-16T07:23:46.101Z,21.54
2018-06-16T07:26:15.083Z,21.91
2018-06-16T07:28:44.079Z,22.21
2018-06-16T07:31:13.096Z,22.12
2018-06-16T07:33:42.116Z,22.49
2018-06-16T07:36:11.148Z,22.79
2018-06-16T07:38:40.078Z,23.23
2018-06-16T07:41:09.165Z,23.80
2018-06-16T07:43:38.129Z,24.22
2018-06-16T07:46:07.127Z,24.48
2018-06-16T07:48:36.142Z,25.43
2018-06-16T07:51:05.128Z,25.61
2018-06-16T07:53:34.285Z,26.54
2018-06-16T07:56:03.302Z,26.39
2018-06-16T07:58:32.489Z,26.47
2018-06-16T08:01:01.740Z,26.82
2018-06-16T08:03:32.197Z,26.83
2018-06-16T08:06:01.176Z,26.53
2018-06-16T08:08:30.214Z,27.22
2018-06-16T08:10:59.333Z,27.03
2018-06-16T08:13:28.307Z,26.80
2018-06-16T08:15:57.306Z,27.08
2018-06-16T08:18:26.314Z,27.18
2018-06-16T08:20:56.034Z,26.88
2018-06-16T08:23:25.130Z,27.43
2018-06-16T08:25:57.196Z,27.16
2018-06-16T08:28:26.179Z,27.69
2018-06-16T08:30:55.353Z,27.46
2018-06-16T08:33:24.339Z,27.33
2018-06-16T08:35:53.443Z,27.14
2018-06-16T08:38:22.563Z,27.62
2018-06-16T08:40:51.643Z,28.51
2018-06-16T08:43:20.975Z,28.99
2018-06-16T08:45:50.024Z,28.13
2018-06-16T08:48:19.065Z,28.96
2018-06-16T08:50:48.136Z,29.19
2018-06-16T08:53:17.261Z,29.36
2018-06-16T08:55:46.347Z,29.98
2018-06-16T08:58:15.284Z,30.03
2018-06-16T09:00:44.311Z,30.67
2018-06-16T09:03:13.445Z,31.48
2018-06-16T09:05:42.425Z,31.23
2018-06-16T09:08:11.392Z,30.51
2018-06-16T09:10:40.552Z,30.83
2018-06-16T09:13:09.519Z,31.27
2018-06-16T09:15:38.509Z,31.65
2018-06-16T09:18:09.096Z,32.59
2018-06-16T09:20:38.118Z,33.10
2018-06-16T09:23:07.079Z,32.45
2018-06-16T09:25:36.059Z,32.41
2018-06-16T09:28:05.106Z,32.06
2018-06-16T09:30:34.091Z,32.85
2018-06-16T09:33:03.079Z,33.40
2018-06-16T09:35:32.052Z,33.49
2018-06-16T09:38:01.073Z,34.65
2018-06-16T09:40:30.111Z,33.17
2018-06-16T09:42:59.098Z,34.13
2018-06-16T09:45:28.257Z,33.97
2018-06-16T09:47:57.390Z,33.89
2018-06-16T09:50:26.362Z,33.74
2018-06-16T09:52:56.307Z,32.78
2018-06-16T09:55:25.317Z,33.08
2018-06-16T09:57:57.726Z,33.42
2018-06-16T10:00:32.316Z,33.12
2018-06-16T10:03:01.314Z,32.65
2018-06-16T10:05:30.338Z,32.91
2018-06-16T10:07:59.590Z,33.25
2018-06-16T10:10:28.611Z,33.47
2018-06-16T10:12:57.608Z,33.67
2018-06-16T10:15:26.644Z,33.36
2018-06-16T10:17:55.621Z,33.49
2018-06-16T10:20:24.626Z,33.56
2018-06-16T10:22:53.704Z,32.52
2018-06-16T10:25:23.926Z,32.78
2018-06-16T10:27:52.984Z,33.29
2018-06-16T10:30:22.052Z,34.04
2018-06-16T10:32:51.036Z,33.59
2018-06-16T10:35:20.106Z,33.36
2018-06-16T10:37:49.079Z,33.92
2018-06-16T10:40:18.289Z,34.13
2018-06-16T10:42:47.328Z,33.49
2018-06-16T10:45:16.323Z,33.29
2018-06-16T10:47:45.327Z,33.45
2018-06-16T10:50:14.401Z,33.08
2018-06-16T10:52:43.374Z,33.32
2018-06-16T10:55:12.333Z,31.89
2018-06-16T10:57:41.354Z,32.63
2018-06-16T11:00:10.333Z,32.29
2018-06-16T11:02:39.351Z,31.25
2018-06-16T11:05:08.507Z,31.46
2018-06-16T11:07:37.488Z,31.17
2018-06-16T11:10:06.748Z,30.74
2018-06-16T11:12:35.781Z,31.68
2018-06-16T11:15:04.717Z,31.82
2018-06-16T11:17:33.706Z,31.80
2018-06-16T11:20:02.665Z,31.99
2018-06-16T11:22:31.670Z,31.92
2018-06-16T11:25:00.649Z,31.67
2018-06-16T11:27:29.625Z,30.64
2018-06-16T11:29:58.685Z,30.34
2018-06-16T11:32:27.661Z,30.05
2018-06-16T11:34:56.633Z,29.86
2018-06-16T11:37:27.843Z,29.51
2018-06-16T11:39:57.297Z,29.62
2018-06-16T11:42:26.260Z,29.60
2018-06-16T11:44:55.213Z,29.71
2018-06-16T11:47:24.203Z,29.47
2018-06-16T11:49:53.376Z,29.62
2018-06-16T11:52:22.506Z,29.22
2018-06-16T11:54:51.669Z,29.11
2018-06-16T11:57:20.617Z,29.73
2018-06-16T11:59:50.093Z,29.93
2018-06-16T12:02:19.175Z,30.27
2018-06-16T12:04:48.183Z,30.29
2018-06-16T12:07:17.417Z,30.00
2018-06-16T12:09:46.419Z,29.52
2018-06-16T12:12:15.498Z,29.69
2018-06-16T12:14:44.535Z,29.86
2018-06-16T12:17:13.706Z,30.28
2018-06-16T12:19:42.676Z,30.05
2018-06-16T12:22:11.909Z,30.23
2018-06-16T12:24:40.967Z,29.40
2018-06-16T12:27:09.922Z,28.91
2018-06-16T12:29:38.943Z,28.40
2018-06-16T12:32:07.988Z,28.27
2018-06-16T12:34:37.000Z,28.15
2018-06-16T12:37:05.993Z,28.44
2018-06-16T12:39:35.117Z,28.25
2018-06-16T12:42:04.233Z,28.19
2018-06-16T12:44:33.212Z,28.17
2018-06-16T12:47:02.173Z,28.06
2018-06-16T12:49:31.179Z,28.13
2018-06-16T12:52:00.189Z,28.25
2018-06-16T12:54:29.655Z,28.05
2018-06-16T12:56:58.809Z,27.95
2018-06-16T12:59:27.801Z,27.57
2018-06-16T13:01:56.888Z,27.52
2018-06-16T13:04:25.856Z,27.83
2018-06-16T13:06:54.876Z,27.93
2018-06-16T13:09:23.857Z,27.99
2018-06-16T13:11:52.890Z,27.94
2018-06-16T13:14:21.887Z,28.16
2018-06-16T13:16:50.858Z,28.36
2018-06-16T13:19:19.904Z,28.46
2018-06-16T13:21:48.954Z,28.46
2018-06-16T13:24:17.922Z,28.54
2018-06-16T13:26:46.941Z,28.50
2018-06-16T13:29:15.996Z,28.35
2018-06-16T13:31:44.974Z,28.92
2018-06-16T13:34:13.987Z,29.15
2018-06-16T13:36:42.933Z,29.61
2018-06-16T13:39:12.549Z,30.14
2018-06-16T13:41:42.305Z,30.47
2018-06-16T13:44:11.349Z,30.17
2018-06-16T13:46:40.367Z,30.11
2018-06-16T13:49:09.485Z,30.27
2018-06-16T13:51:38.498Z,30.52
2018-06-16T13:54:07.590Z,30.77
2018-06-16T13:56:36.677Z,30.73
2018-06-16T13:59:05.804Z,31.05
2018-06-16T14:01:34.889Z,30.98
2018-06-16T14:04:03.971Z,30.99
2018-06-16T14:06:33.027Z,30.56
2018-06-16T14:09:02.031Z,30.06
2018-06-16T14:11:30.973Z,29.62
2018-06-16T14:14:03.006Z,29.32
2018-06-16T14:16:32.000Z,29.28
2018-06-16T14:19:00.954Z,29.26
2018-06-16T14:21:29.985Z,28.93
2018-06-16T14:23:58.967Z,28.77
2018-06-16T14:26:28.019Z,28.77
2018-06-16T14:28:56.967Z,28.52
2018-06-16T14:31:26.193Z,28.22
2018-06-16T14:33:55.228Z,28.07
2018-06-16T14:36:24.815Z,28.05
2018-06-16T14:38:54.138Z,27.90
2018-06-16T14:41:23.380Z,28.31
2018-06-16T14:43:52.699Z,28.19
2018-06-16T14:46:21.697Z,28.29
2018-06-16T14:48:50.701Z,28.27
2018-06-16T14:51:19.678Z,28.55
2018-06-16T14:53:48.687Z,28.38
2018-06-16T14:56:17.772Z,28.22
2018-06-16T14:58:46.740Z,28.59
2018-06-16T15:01:15.934Z,28.97
2018-06-16T15:03:44.912Z,29.13
2018-06-16T15:06:13.908Z,29.11
2018-06-16T15:08:42.933Z,29.26
2018-06-16T15:11:12.030Z,29.61
2018-06-16T15:13:41.001Z,29.70
2018-06-16T15:16:10.086Z,29.21
2018-06-16T15:18:39.033Z,29.34
2018-06-16T15:21:08.182Z,29.45
2018-06-16T15:23:37.206Z,29.63
2018-06-16T15:26:06.205Z,29.38
2018-06-16T15:28:35.215Z,29.40
2018-06-16T15:31:04.335Z,28.89
2018-06-16T15:33:33.334Z,28.40
2018-06-16T15:36:02.403Z,28.25
2018-06-16T15:38:31.630Z,28.12
2018-06-16T15:41:02.240Z,28.05
2018-06-16T15:43:31.362Z,27.72
2018-06-16T15:46:00.354Z,27.58
2018-06-16T15:48:29.337Z,27.56
2018-06-16T15:50:58.363Z,27.73
2018-06-16T15:53:27.791Z,27.83
2018-06-16T15:55:56.819Z,27.72
2018-06-16T15:58:25.901Z,27.57
2018-06-16T16:00:55.139Z,27.52
2018-06-16T16:03:24.107Z,27.37
2018-06-16T16:05:53.074Z,27.36
2018-06-16T16:08:22.096Z,27.33
2018-06-16T16:10:51.208Z,27.38
2018-06-16T16:13:20.210Z,27.43
2018-06-16T16:15:49.418Z,27.40
2018-06-16T16:18:18.435Z,27.23
2018-06-16T16:20:47.462Z,27.24
2018-06-16T16:23:16.445Z,27.50
2018-06-16T16:25:45.518Z,27.54
2018-06-16T16:28:14.494Z,27.53
2018-06-16T16:30:43.591Z,27.49
2018-06-16T16:33:12.570Z,27.30
2018-06-16T16:35:41.590Z,27.23
2018-06-16T16:38:10.580Z,27.16
2018-06-16T16:40:39.584Z,27.21
2018-06-16T16:43:08.562Z,27.26
2018-06-16T16:45:37.621Z,27.31
2018-06-16T16:48:06.824Z,27.15
2018-06-16T16:50:36.065Z,27.02
2018-06-16T16:53:05.058Z,26.91
2018-06-16T16:55:34.316Z,26.83
2018-06-16T16:58:03.301Z,26.74
2018-06-16T17:00:32.342Z,26.70
2018-06-16T17:03:01.533Z,26.54
2018-06-16T17:05:30.542Z,26.49
2018-06-16T17:07:59.588Z,26.44
2018-06-16T17:10:28.655Z,26.34
2018-06-16T17:12:57.678Z,26.34
2018-06-16T17:15:26.641Z,26.07
2018-06-16T17:17:55.697Z,26.09
2018-06-16T17:20:24.773Z,26.01
2018-06-16T17:22:53.773Z,25.95
2018-06-16T17:25:22.758Z,25.93
2018-06-16T17:27:51.757Z,25.90
2018-06-16T17:30:20.748Z,25.96
2018-06-16T17:32:49.730Z,25.92
2018-06-16T17:35:18.734Z,25.93
2018-06-16T17:37:47.837Z,25.94
2018-06-16T17:40:16.836Z,25.84
2018-06-16T17:42:45.864Z,25.80
2018-06-16T17:45:14.862Z,25.68
2018-06-16T17:47:43.846Z,25.54
2018-06-16T17:50:12.911Z,25.48
2018-06-16T17:52:41.915Z,25.40
2018-06-16T17:55:11.015Z,25.35
2018-06-16T17:57:40.021Z,25.27
2018-06-16T18:00:09.010Z,25.19
2018-06-16T18:02:37.987Z,25.06
2018-06-16T18:05:06.967Z,24.95
2018-06-16T18:07:35.926Z,24.90
2018-06-16T18:10:05.470Z,24.83
2018-06-16T18:12:34.465Z,24.75
2018-06-16T18:15:03.525Z,24.68
2018-06-16T18:17:32.498Z,24.62
2018-06-16T18:20:01.513Z,24.58
2018-06-16T18:22:30.548Z,24.54
2018-06-16T18:24:59.540Z,24.42
2018-06-16T18:27:28.620Z,24.38
2018-06-16T18:29:57.626Z,24.29
2018-06-16T18:32:26.628Z,24.27
2018-06-16T18:34:55.734Z,24.24
2018-06-16T18:37:24.730Z,24.21
2018-06-16T18:39:53.798Z,24.07
2018-06-16T18:42:22.783Z,24.04
2018-06-16T18:44:51.890Z,24.04
2018-06-16T18:47:21.125Z,24.00
2018-06-16T18:49:50.543Z,23.98
2018-06-16T18:52:19.480Z,23.94
2018-06-16T18:54:48.480Z,23.90
2018-06-16T18:57:17.578Z,23.88
2018-06-16T18:59:46.562Z,23.81
2018-06-16T19:02:15.543Z,23.75
2018-06-16T19:04:44.557Z,23.77
2018-06-16T19:07:13.591Z,23.66
2018-06-16T19:09:42.539Z,23.62
2018-06-16T19:12:11.548Z,23.59
2018-06-16T19:14:40.543Z,23.56
2018-06-16T19:17:09.554Z,23.40
2018-06-16T19:19:38.642Z,23.37
2018-06-16T19:22:07.647Z,23.35
2018-06-16T19:24:36.622Z,23.27
2018-06-16T19:27:05.677Z,23.18
2018-06-16T19:29:34.689Z,23.11
2018-06-16T19:32:03.676Z,23.02
2018-06-16T19:34:32.835Z,22.93
2018-06-16T19:37:02.199Z,22.87
2018-06-16T19:39:31.167Z,22.79
2018-06-16T19:42:00.139Z,22.69
2018-06-16T19:44:29.330Z,22.59
2018-06-16T19:46:58.308Z,22.49
2018-06-16T19:49:27.384Z,22.44
2018-06-16T19:51:56.371Z,22.39
2018-06-16T19:54:25.357Z,22.32
2018-06-16T19:56:54.470Z,22.25
2018-06-16T19:59:23.524Z,22.16
2018-06-16T20:01:52.924Z,22.10
2018-06-16T20:04:22.068Z,21.99
2018-06-16T20:06:52.226Z,21.92
2018-06-16T20:11:49.177Z,21.83
2018-06-16T20:14:18.469Z,21.83
2018-06-16T20:16:47.861Z,21.75
2018-06-16T20:19:16.913Z,21.69
2018-06-16T20:21:45.905Z,21.65
2018-06-16T20:24:15.429Z,21.61
2018-06-16T20:26:44.491Z,21.56
2018-06-16T20:29:13.506Z,21.60
2018-06-16T20:31:42.678Z,21.59
2018-06-16T20:34:11.736Z,21.51
2018-06-16T20:36:40.718Z,21.38
2018-06-16T20:39:09.758Z,21.27
2018-06-16T20:41:38.731Z,21.22
2018-06-16T20:44:07.902Z,21.21
2018-06-16T20:46:37.019Z,21.18
2018-06-16T20:49:06.059Z,21.15
2018-06-16T20:51:35.144Z,21.09
2018-06-16T20:54:04.127Z,21.06
2018-06-16T20:56:33.167Z,21.04
2018-06-16T20:59:02.221Z,20.98
2018-06-16T21:01:31.234Z,20.95
2018-06-16T21:04:00.287Z,20.90
2018-06-16T21:06:29.302Z,20.82
2018-06-16T21:08:58.297Z,20.77
2018-06-16T21:11:27.403Z,20.73
2018-06-16T21:13:56.411Z,20.70
2018-06-16T21:16:25.450Z,20.73
2018-06-16T21:18:54.440Z,20.69
2018-06-16T21:21:23.754Z,20.67
2018-06-16T21:23:52.735Z,20.65
2018-06-16T21:26:21.699Z,20.57
2018-06-16T21:28:50.740Z,20.50
2018-06-16T21:31:20.072Z,20.46
2018-06-16T21:33:49.254Z,20.38
2018-06-16T21:36:18.234Z,20.31
2018-06-16T21:38:47.216Z,20.21
2018-06-16T21:41:16.197Z,20.15
2018-06-16T21:43:45.356Z,20.03
2018-06-16T21:46:14.400Z,19.97
2018-06-16T21:48:43.549Z,19.91
2018-06-16T21:51:12.605Z,19.85
2018-06-16T21:53:41.623Z,19.83
2018-06-16T21:56:10.662Z,19.79
2018-06-16T21:58:40.058Z,19.77
2018-06-16T22:01:09.042Z,19.76
2018-06-16T22:03:38.021Z,19.73
2018-06-16T22:06:07.042Z,19.73
2018-06-16T22:08:36.083Z,19.72
2018-06-16T22:11:05.119Z,19.71
2018-06-16T22:13:34.198Z,19.67
2018-06-16T22:16:03.228Z,19.64
2018-06-16T22:18:32.306Z,19.66
2018-06-16T22:21:01.455Z,19.66
2018-06-16T22:23:30.673Z,19.67
2018-06-16T22:25:59.946Z,19.65
2018-06-16T22:28:29.033Z,19.65
2018-06-16T22:30:58.041Z,19.64
2018-06-16T22:33:27.058Z,19.59
2018-06-16T22:35:56.077Z,19.57
2018-06-16T22:38:25.053Z,19.51
2018-06-16T22:40:54.651Z,19.47
2018-06-16T22:43:23.631Z,19.48
2018-06-16T22:45:52.680Z,19.40
2018-06-16T22:48:21.682Z,19.39
2018-06-16T22:50:50.651Z,19.37
2018-06-16T22:53:19.836Z,19.27
2018-06-16T22:55:48.840Z,19.22
2018-06-16T22:58:17.834Z,19.14
2018-06-16T23:00:46.929Z,19.11
2018-06-16T23:03:15.919Z,19.01
2018-06-16T23:05:44.960Z,18.95
2018-06-16T23:08:13.950Z,18.89
2018-06-16T23:10:47.333Z,18.84
2018-06-16T23:13:16.298Z,18.79
2018-06-16T23:15:45.391Z,18.75
2018-06-16T23:18:14.420Z,18.69
2018-06-16T23:20:43.535Z,18.68
2018-06-16T23:23:12.680Z,18.66
2018-06-16T23:25:41.909Z,18.62
2018-06-16T23:28:10.906Z,18.57
2018-06-16T23:30:39.881Z,18.53
2018-06-16T23:33:08.903Z,18.50
2018-06-16T23:35:38.080Z,18.49
2018-06-16T23:38:07.368Z,18.47
2018-06-16T23:40:36.374Z,18.45
2018-06-16T23:43:05.423Z,18.46
2018-06-16T23:45:34.685Z,18.40
2018-06-16T23:48:04.135Z,18.35
2018-06-16T23:50:33.282Z,18.31
2018-06-16T23:53:02.272Z,18.31
2018-06-16T23:55:31.345Z,18.33
2018-06-16T23:58:00.415Z,18.31
